createdAt,value
2023-05-04T00:00:11.055Z,66.96
2023-05-04T00:02:38.996Z,66.01
2023-05-04T00:05:08.436Z,65.72
2023-05-04T00:07:36.455Z,65.41
2023-05-04T00:10:04.945Z,66.43
2023-05-04T00:12:34.585Z,66.61
2023-05-04T00:15:02.387Z,67.08
2023-05-04T00:17:30.109Z,68.75
2023-05-04T00:19:58.344Z,68.80
2023-05-04T00:22:26.061Z,69.84
2023-05-04T00:24:53.737Z,69.79
2023-05-04T00:27:21.739Z,68.50
2023-05-04T00:29:50.817Z,69.20
2023-05-04T00:32:18.578Z,68.78
2023-05-04T00:34:46.321Z,68.88
2023-05-04T00:37:14.004Z,70.05
2023-05-04T00:39:41.677Z,69.08
2023-05-04T00:42:09.503Z,70.03
2023-05-04T00:44:41.107Z,70.05
2023-05-04T00:47:10.507Z,70.22
2023-05-04T00:49:38.772Z,70.95
2023-05-04T00:52:07.801Z,71.17
2023-05-04T00:54:35.883Z,71.01
2023-05-04T00:57:04.505Z,71.35
2023-05-04T00:59:32.199Z,71.55
2023-05-04T01:01:59.856Z,72.14
2023-05-04T01:04:29.194Z,72.84
2023-05-04T01:07:04.744Z,72.09
2023-05-04T01:09:38.093Z,72.71
2023-05-04T01:12:08.304Z,71.42
2023-05-04T01:14:37.439Z,71.67
2023-05-04T01:17:07.412Z,71.76
2023-05-04T01:19:36.641Z,72.31
2023-05-04T01:22:05.800Z,71.93
2023-05-04T01:24:34.052Z,72.09
2023-05-04T01:27:06.707Z,71.78
2023-05-04T01:29:43.698Z,72.23
2023-05-04T01:32:13.729Z,70.74
2023-05-04T01:34:42.200Z,70.37
2023-05-04T01:37:11.746Z,70.37
2023-05-04T01:39:39.836Z,70.69
2023-05-04T01:42:08.270Z,71.05
2023-05-04T01:44:36.052Z,71.27
2023-05-04T01:47:04.170Z,71.27
2023-05-04T01:49:31.926Z,71.24
2023-05-04T01:51:59.710Z,71.11
2023-05-04T01:54:28.762Z,69.68
2023-05-04T01:56:56.483Z,70.89
2023-05-04T01:59:24.280Z,70.23
2023-05-04T02:01:52.088Z,69.48
2023-05-04T02:04:19.962Z,69.41
2023-05-04T02:06:47.854Z,69.86
2023-05-04T02:09:15.651Z,69.13
2023-05-04T02:11:44.712Z,68.95
2023-05-04T02:14:12.395Z,69.17
2023-05-04T02:16:40.170Z,68.26
2023-05-04T02:19:08.005Z,68.66
2023-05-04T02:21:35.949Z,68.19
2023-05-04T02:24:06.218Z,69.20
2023-05-04T02:26:34.150Z,68.76
2023-05-04T02:29:05.001Z,69.03
2023-05-04T02:31:32.809Z,70.02
2023-05-04T02:34:01.324Z,69.68
2023-05-04T02:36:29.145Z,69.48
2023-05-04T02:38:56.865Z,68.71
2023-05-04T02:41:24.580Z,70.45
2023-05-04T02:43:52.331Z,70.27
2023-05-04T02:46:21.451Z,71.48
2023-05-04T02:48:49.260Z,72.08
2023-05-04T02:51:17.024Z,71.58
2023-05-04T02:53:44.722Z,70.39
2023-05-04T02:56:12.403Z,70.84
2023-05-04T02:58:40.156Z,71.43
2023-05-04T03:01:07.970Z,73.21
2023-05-04T03:03:37.151Z,72.62
2023-05-04T03:06:05.363Z,74.13
2023-05-04T03:08:33.106Z,75.39
2023-05-04T03:11:00.956Z,74.51
2023-05-04T03:13:28.695Z,73.11
2023-05-04T03:15:56.504Z,74.96
2023-05-04T03:18:24.387Z,74.56
2023-05-04T03:20:53.485Z,74.35
2023-05-04T03:23:21.252Z,74.31
2023-05-04T03:25:49.013Z,74.28
2023-05-04T03:28:16.788Z,76.14
2023-05-04T03:30:44.483Z,75.84
2023-05-04T03:33:12.250Z,76.51
2023-05-04T03:35:39.954Z,75.05
2023-05-04T03:38:09.939Z,74.51
2023-05-04T03:40:37.960Z,72.86
2023-05-04T03:43:05.709Z,73.41
2023-05-04T03:45:33.423Z,74.28
2023-05-04T03:48:01.219Z,74.10
2023-05-04T03:50:29.076Z,73.74
2023-05-04T03:52:57.040Z,72.65
2023-05-04T03:55:26.310Z,71.98
2023-05-04T03:57:54.047Z,71.43
2023-05-04T04:00:21.938Z,70.97
2023-05-04T04:02:49.725Z,71.44
2023-05-04T04:05:17.576Z,72.67
2023-05-04T04:07:45.254Z,72.02
2023-05-04T04:10:12.987Z,71.82
2023-05-04T04:12:42.325Z,71.34
2023-05-04T04:15:10.689Z,73.17
2023-05-04T04:17:38.475Z,72.17
2023-05-04T04:20:07.518Z,72.17
2023-05-04T04:22:35.449Z,71.82
2023-05-04T04:25:03.417Z,72.54
2023-05-04T04:27:31.274Z,72.39
2023-05-04T04:30:00.666Z,72.79
2023-05-04T04:32:29.076Z,73.88
2023-05-04T04:34:56.932Z,73.26
2023-05-04T04:37:24.614Z,73.29
2023-05-04T04:39:52.295Z,72.89
2023-05-04T04:42:20.114Z,73.53
2023-05-04T04:44:49.429Z,72.78
2023-05-04T04:47:18.877Z,73.53
2023-05-04T04:49:46.590Z,73.77
2023-05-04T04:52:15.588Z,74.79
2023-05-04T04:54:43.802Z,73.90
2023-05-04T04:57:11.595Z,77.18
2023-05-04T04:59:39.356Z,76.62
2023-05-04T05:02:07.199Z,74.82
2023-05-04T05:04:36.415Z,80.89
2023-05-04T05:07:04.168Z,80.84
2023-05-04T05:09:31.829Z,79.13
2023-05-04T05:11:59.582Z,80.88
2023-05-04T05:14:27.498Z,81.09
2023-05-04T05:16:55.316Z,77.90
2023-05-04T05:19:23.112Z,77.56
2023-05-04T05:21:52.394Z,77.94
2023-05-04T05:24:21.290Z,80.17
2023-05-04T05:26:49.008Z,78.37
2023-05-04T05:29:16.724Z,83.98
2023-05-04T05:31:44.418Z,82.75
2023-05-04T05:34:12.332Z,83.34
2023-05-04T05:36:40.471Z,86.76
2023-05-04T05:39:09.526Z,88.20
2023-05-04T05:41:37.255Z,87.69
2023-05-04T05:44:05.569Z,85.32
2023-05-04T05:46:33.402Z,84.65
2023-05-04T05:49:01.186Z,87.18
2023-05-04T05:51:28.861Z,88.28
2023-05-04T05:53:56.549Z,92.22
2023-05-04T05:56:25.748Z,93.23
2023-05-04T05:58:53.659Z,94.62
2023-05-04T06:01:21.384Z,94.42
2023-05-04T06:03:49.340Z,94.63
2023-05-04T06:06:17.293Z,93.97
2023-05-04T06:08:44.975Z,95.31
2023-05-04T06:11:12.702Z,95.98
2023-05-04T06:13:41.835Z,97.08
2023-05-04T06:16:09.591Z,98.29
2023-05-04T06:18:37.332Z,97.19
2023-05-04T06:21:05.330Z,95.16
2023-05-04T06:23:33.018Z,94.13
2023-05-04T06:26:00.893Z,96.01
2023-05-04T06:28:28.604Z,93.63
2023-05-04T06:30:57.927Z,95.59
2023-05-04T06:33:25.769Z,96.01
2023-05-04T06:35:53.703Z,97.49
2023-05-04T06:38:21.654Z,98.16
2023-05-04T06:40:49.589Z,97.81
2023-05-04T06:43:17.286Z,100.00
2023-05-04T06:45:45.059Z,100.00
2023-05-04T06:48:14.937Z,100.00
2023-05-04T06:50:42.736Z,100.00
2023-05-04T06:53:11.708Z,100.00
2023-05-04T06:55:39.446Z,100.00
2023-05-04T06:58:07.271Z,100.00
2023-05-04T07:00:36.161Z,100.00
2023-05-04T07:03:03.985Z,100.00
2023-05-04T07:05:35.409Z,100.00
2023-05-04T07:08:03.230Z,100.00
2023-05-04T07:10:31.515Z,100.00
2023-05-04T07:12:59.482Z,100.00
2023-05-04T07:15:27.192Z,100.00
2023-05-04T07:17:54.897Z,100.00
2023-05-04T07:20:25.641Z,100.00
2023-05-04T07:22:56.870Z,100.00
2023-05-04T07:25:25.151Z,100.00
2023-05-04T07:27:52.949Z,100.00
2023-05-04T07:30:21.585Z,100.00
2023-05-04T07:32:49.429Z,100.00
2023-05-04T07:35:17.251Z,100.00
2023-05-04T07:37:45.001Z,98.34
2023-05-04T07:40:15.570Z,100.00
2023-05-04T07:42:43.463Z,100.00
2023-05-04T07:45:11.827Z,100.00
2023-05-04T07:47:39.582Z,100.00
2023-05-04T07:50:08.552Z,100.00
2023-05-04T07:52:36.459Z,100.00
2023-05-04T07:55:04.328Z,100.00
2023-05-04T07:57:35.643Z,100.00
2023-05-04T08:00:05.114Z,100.00
2023-05-04T08:02:33.037Z,100.00
2023-05-04T08:05:00.857Z,100.00
2023-05-04T08:07:28.680Z,100.00
2023-05-04T08:09:57.159Z,100.00
2023-05-04T08:12:26.956Z,99.32
2023-05-04T08:14:56.056Z,100.00
2023-05-04T08:17:23.754Z,100.00
2023-05-04T08:19:51.884Z,100.00
2023-05-04T08:22:19.850Z,100.00
2023-05-04T08:24:48.116Z,100.00
2023-05-04T08:27:15.891Z,99.32
2023-05-04T08:29:43.900Z,100.00
2023-05-04T08:32:13.323Z,99.82
2023-05-04T08:34:41.019Z,99.13
2023-05-04T08:37:08.760Z,100.00
2023-05-04T08:39:36.541Z,98.80
2023-05-04T08:42:04.310Z,98.61
2023-05-04T08:44:32.172Z,100.00
2023-05-04T08:47:00.265Z,98.46
2023-05-04T08:49:30.577Z,97.19
2023-05-04T08:52:00.196Z,99.07
2023-05-04T08:54:29.711Z,98.69
2023-05-04T08:56:58.802Z,97.41
2023-05-04T08:59:29.316Z,95.02
2023-05-04T09:01:59.598Z,97.68
2023-05-04T09:04:29.774Z,96.52
2023-05-04T09:06:58.452Z,93.31
2023-05-04T09:09:28.743Z,94.77
2023-05-04T09:11:56.733Z,95.43
2023-05-04T09:14:33.637Z,95.58
2023-05-04T09:17:01.493Z,94.32
2023-05-04T09:19:33.703Z,92.48
2023-05-04T09:22:01.808Z,91.99
2023-05-04T09:24:30.191Z,93.05
2023-05-04T09:27:10.577Z,88.69
2023-05-04T09:29:39.766Z,87.99
2023-05-04T09:32:07.765Z,89.37
2023-05-04T09:34:37.454Z,89.23
2023-05-04T09:37:05.177Z,88.36
2023-05-04T09:39:32.897Z,88.30
2023-05-04T09:42:00.864Z,88.15
2023-05-04T09:44:29.775Z,85.87
2023-05-04T09:46:58.832Z,88.38
2023-05-04T09:49:33.389Z,86.60
2023-05-04T09:52:03.630Z,84.83
2023-05-04T09:54:34.892Z,85.81
2023-05-04T09:57:11.422Z,84.01
2023-05-04T09:59:39.226Z,85.00
2023-05-04T10:02:21.278Z,85.31
2023-05-04T10:04:51.650Z,85.25
2023-05-04T10:07:21.737Z,85.75
2023-05-04T10:09:50.250Z,84.97
2023-05-04T10:12:18.428Z,85.94
2023-05-04T10:14:47.181Z,82.15
2023-05-04T10:17:24.937Z,82.90
2023-05-04T10:20:07.506Z,81.62
2023-05-04T10:22:52.377Z,83.35
2023-05-04T10:25:42.095Z,82.81
2023-05-04T10:28:22.301Z,82.34
2023-05-04T10:30:57.000Z,84.05
2023-05-04T10:33:24.786Z,79.31
2023-05-04T10:35:53.863Z,78.86
2023-05-04T10:38:33.065Z,76.54
2023-05-04T10:41:00.797Z,75.79
2023-05-04T10:43:29.931Z,76.37
2023-05-04T10:45:58.676Z,75.09
2023-05-04T10:48:35.377Z,76.96
2023-05-04T10:51:04.433Z,76.49
2023-05-04T10:53:34.276Z,75.00
2023-05-04T10:56:02.783Z,75.34
2023-05-04T10:58:30.915Z,71.69
2023-05-04T11:00:58.745Z,70.20
2023-05-04T11:03:26.888Z,71.60
2023-05-04T11:05:55.426Z,69.60
2023-05-04T11:08:24.394Z,69.33
2023-05-04T11:11:03.813Z,69.88
2023-05-04T11:13:32.077Z,71.73
2023-05-04T11:15:59.786Z,73.13
2023-05-04T11:18:28.926Z,71.13
2023-05-04T11:20:57.018Z,72.96
2023-05-04T11:23:25.169Z,70.65
2023-05-04T11:25:53.626Z,70.96
2023-05-04T11:28:32.650Z,72.09
2023-05-04T11:31:00.370Z,71.76
2023-05-04T11:33:29.621Z,71.41
2023-05-04T11:36:02.264Z,72.79
2023-05-04T11:38:30.199Z,69.25
2023-05-04T11:40:58.007Z,66.27
2023-05-04T11:43:27.367Z,69.16
2023-05-04T11:45:57.964Z,69.21
2023-05-04T11:48:26.218Z,70.17
2023-05-04T11:50:55.212Z,71.33
2023-05-04T11:53:23.262Z,70.14
2023-05-04T11:55:52.401Z,70.75
2023-05-04T11:58:25.680Z,71.88
2023-05-04T12:00:58.873Z,71.52
2023-05-04T12:03:35.976Z,69.51
2023-05-04T12:06:16.022Z,66.68
2023-05-04T12:08:44.047Z,70.06
2023-05-04T12:11:16.406Z,74.19
2023-05-04T12:13:46.020Z,75.07
2023-05-04T12:16:16.382Z,71.98
2023-05-04T12:18:45.359Z,69.98
2023-05-04T12:21:14.579Z,69.58
2023-05-04T12:23:42.977Z,69.96
2023-05-04T12:26:11.652Z,69.82
2023-05-04T12:28:40.607Z,69.68
2023-05-04T12:31:08.850Z,71.03
2023-05-04T12:33:37.947Z,70.94
2023-05-04T12:36:06.403Z,66.13
2023-05-04T12:38:34.390Z,69.51
2023-05-04T12:41:04.384Z,69.86
2023-05-04T12:43:33.133Z,71.67
2023-05-04T12:46:01.243Z,73.41
2023-05-04T12:48:31.886Z,76.19
2023-05-04T12:51:01.860Z,74.37
2023-05-04T12:53:31.927Z,76.01
2023-05-04T12:56:01.238Z,74.73
2023-05-04T12:58:29.122Z,74.10
2023-05-04T13:00:57.813Z,70.60
2023-05-04T13:03:25.682Z,71.66
2023-05-04T13:05:53.610Z,70.28
2023-05-04T13:08:22.648Z,69.59
2023-05-04T13:10:50.354Z,69.66
2023-05-04T13:13:21.251Z,66.87
2023-05-04T13:15:51.073Z,64.48
2023-05-04T13:18:18.953Z,65.62
2023-05-04T13:20:46.862Z,65.89
2023-05-04T13:23:15.276Z,64.55
2023-05-04T13:25:44.364Z,65.81
2023-05-04T13:28:12.099Z,64.44
2023-05-04T13:30:39.881Z,63.87
2023-05-04T13:33:16.814Z,65.34
2023-05-04T13:35:49.021Z,66.72
2023-05-04T13:38:16.898Z,65.60
2023-05-04T13:40:45.950Z,65.70
2023-05-04T13:43:13.723Z,66.44
2023-05-04T13:45:41.427Z,66.93
2023-05-04T13:48:09.171Z,65.83
2023-05-04T13:50:36.987Z,63.72
2023-05-04T13:53:04.729Z,64.19
2023-05-04T13:55:32.498Z,63.36
2023-05-04T13:58:01.745Z,64.57
2023-05-04T14:00:29.582Z,63.89
2023-05-04T14:02:57.562Z,64.48
2023-05-04T14:05:25.683Z,63.51
2023-05-04T14:07:53.730Z,63.05
2023-05-04T14:10:21.597Z,63.20
2023-05-04T14:12:49.424Z,62.53
2023-05-04T14:15:22.413Z,64.94
2023-05-04T14:17:49.981Z,62.62
2023-05-04T14:20:18.018Z,58.05
2023-05-04T14:22:46.321Z,57.55
2023-05-04T14:25:14.847Z,57.20
2023-05-04T14:27:43.782Z,56.42
2023-05-04T14:30:12.714Z,59.04
2023-05-04T14:32:42.682Z,56.39
2023-05-04T14:35:12.312Z,54.47
2023-05-04T14:37:41.049Z,53.94
2023-05-04T14:40:10.399Z,55.73
2023-05-04T14:42:38.843Z,55.28
2023-05-04T14:45:08.361Z,56.56
2023-05-04T14:47:36.458Z,57.26
2023-05-04T14:50:07.128Z,54.47
2023-05-04T14:52:35.014Z,54.86
2023-05-04T14:55:02.844Z,57.51
2023-05-04T14:57:30.596Z,56.72
2023-05-04T14:59:58.328Z,55.69
2023-05-04T15:02:26.484Z,56.08
2023-05-04T15:04:54.236Z,56.03
2023-05-04T15:07:23.489Z,55.20
2023-05-04T15:09:51.202Z,56.47
2023-05-04T15:12:18.990Z,56.07
2023-05-04T15:14:47.052Z,54.95
2023-05-04T15:17:14.794Z,56.94
2023-05-04T15:19:43.625Z,58.17
2023-05-04T15:22:11.366Z,59.02
2023-05-04T15:24:40.384Z,59.80
2023-05-04T15:27:08.115Z,58.01
2023-05-04T15:29:35.849Z,59.13
2023-05-04T15:32:03.574Z,59.02
2023-05-04T15:34:31.347Z,60.93
2023-05-04T15:36:59.095Z,61.26
2023-05-04T15:39:27.473Z,62.17
2023-05-04T15:41:56.567Z,61.61
2023-05-04T15:44:26.021Z,62.08
2023-05-04T15:46:53.721Z,64.41
2023-05-04T15:49:21.470Z,64.98
2023-05-04T15:51:49.130Z,66.97
2023-05-04T15:54:16.863Z,68.88
2023-05-04T15:56:44.896Z,66.67
2023-05-04T15:59:16.838Z,65.14
2023-05-04T16:01:44.636Z,66.37
2023-05-04T16:04:12.639Z,63.50
2023-05-04T16:06:40.699Z,64.25
2023-05-04T16:09:08.362Z,64.63
2023-05-04T16:11:37.387Z,65.94
2023-05-04T16:14:05.068Z,67.15
2023-05-04T16:16:34.270Z,69.69
2023-05-04T16:19:01.989Z,66.30
2023-05-04T16:21:30.085Z,66.01
2023-05-04T16:23:57.756Z,64.44
2023-05-04T16:26:25.415Z,66.18
2023-05-04T16:28:53.164Z,66.03
2023-05-04T16:31:20.936Z,65.91
2023-05-04T16:33:50.036Z,67.60
2023-05-04T16:36:17.719Z,69.98
2023-05-04T16:38:45.745Z,69.30
2023-05-04T16:41:13.424Z,72.91
2023-05-04T16:43:41.147Z,71.04
2023-05-04T16:46:09.008Z,71.81
2023-05-04T16:48:37.942Z,73.84
2023-05-04T16:51:08.147Z,75.22
2023-05-04T16:53:35.960Z,74.86
2023-05-04T16:56:04.284Z,77.19
2023-05-04T16:58:32.031Z,75.39
2023-05-04T17:00:59.727Z,76.06
2023-05-04T17:03:27.880Z,74.97
2023-05-04T17:05:55.647Z,73.24
2023-05-04T17:08:25.150Z,74.74
2023-05-04T17:10:52.868Z,76.08
2023-05-04T17:13:20.665Z,74.92
2023-05-04T17:15:48.383Z,74.68
2023-05-04T17:18:16.109Z,74.55
2023-05-04T17:20:43.839Z,73.44
2023-05-04T17:23:11.623Z,72.87
2023-05-04T17:25:41.507Z,71.59
2023-05-04T17:28:09.204Z,71.10
2023-05-04T17:30:37.172Z,69.29
2023-05-04T17:33:05.139Z,73.21
2023-05-04T17:35:32.870Z,74.01
2023-05-04T17:38:00.603Z,73.74
2023-05-04T17:40:29.381Z,73.25
2023-05-04T17:42:58.682Z,73.18
2023-05-04T17:45:26.775Z,72.42
2023-05-04T17:47:54.897Z,73.66
2023-05-04T17:50:23.585Z,74.22
2023-05-04T17:52:55.137Z,74.11
2023-05-04T17:55:24.542Z,72.99
2023-05-04T17:57:53.600Z,71.36
2023-05-04T18:00:23.529Z,70.73
2023-05-04T18:02:51.404Z,73.04
2023-05-04T18:05:19.270Z,74.49
2023-05-04T18:07:46.978Z,72.83
2023-05-04T18:10:14.718Z,73.58
2023-05-04T18:12:42.487Z,73.37
2023-05-04T18:15:10.998Z,74.32
2023-05-04T18:17:40.109Z,74.01
2023-05-04T18:20:10.304Z,74.25
2023-05-04T18:22:38.248Z,74.98
2023-05-04T18:25:06.944Z,74.09
2023-05-04T18:27:35.090Z,75.22
2023-05-04T18:30:03.713Z,75.06
2023-05-04T18:32:31.578Z,76.75
2023-05-04T18:35:01.469Z,74.03
2023-05-04T18:37:30.642Z,73.59
2023-05-04T18:39:58.914Z,72.45
2023-05-04T18:42:27.008Z,73.04
2023-05-04T18:44:55.200Z,73.66
2023-05-04T18:47:22.979Z,75.78
2023-05-04T18:49:52.158Z,75.32
2023-05-04T18:52:21.578Z,75.47
2023-05-04T18:54:49.582Z,74.88
2023-05-04T18:57:17.341Z,74.17
2023-05-04T18:59:45.131Z,73.77
2023-05-04T19:02:13.008Z,74.08
2023-05-04T19:04:40.709Z,75.06
2023-05-04T19:07:09.766Z,74.68
2023-05-04T19:09:38.952Z,77.71
2023-05-04T19:12:07.292Z,78.74
2023-05-04T19:14:34.958Z,79.02
2023-05-04T19:17:04.873Z,77.70
2023-05-04T19:19:36.349Z,77.05
2023-05-04T19:22:04.368Z,77.04
2023-05-04T19:24:34.331Z,77.61
2023-05-04T19:27:03.704Z,77.06
2023-05-04T19:29:31.491Z,77.61
2023-05-04T19:32:01.293Z,77.20
2023-05-04T19:34:33.611Z,79.21
2023-05-04T19:37:01.362Z,81.53
2023-05-04T19:39:29.474Z,79.95
2023-05-04T19:41:57.244Z,78.79
2023-05-04T19:44:26.271Z,79.17
2023-05-04T19:46:54.030Z,78.04
2023-05-04T19:49:22.277Z,78.02
2023-05-04T19:51:49.980Z,79.09
2023-05-04T19:54:17.734Z,79.05
2023-05-04T19:56:45.472Z,78.73
2023-05-04T19:59:13.259Z,79.56
2023-05-04T20:01:42.357Z,80.02
2023-05-04T20:04:10.145Z,80.73
2023-05-04T20:06:37.971Z,80.93
2023-05-04T20:09:05.786Z,81.82
2023-05-04T20:11:33.764Z,83.14
2023-05-04T20:14:01.436Z,85.30
2023-05-04T20:16:29.226Z,84.95
2023-05-04T20:18:58.738Z,85.37
2023-05-04T20:21:27.887Z,85.63
2023-05-04T20:23:55.737Z,83.99
2023-05-04T20:26:23.652Z,85.05
2023-05-04T20:28:51.402Z,86.15
2023-05-04T20:31:19.178Z,87.31
2023-05-04T20:33:46.844Z,86.80
2023-05-04T20:36:15.996Z,87.94
2023-05-04T20:38:43.647Z,90.08
2023-05-04T20:41:11.949Z,90.34
2023-05-04T20:43:39.738Z,91.37
2023-05-04T20:46:07.904Z,91.16
2023-05-04T20:48:35.655Z,90.65
2023-05-04T20:51:14.028Z,90.32
2023-05-04T20:53:44.372Z,89.98
2023-05-04T20:56:12.338Z,90.82
2023-05-04T20:58:40.028Z,92.74
2023-05-04T21:01:08.025Z,92.51
2023-05-04T21:03:36.290Z,92.12
2023-05-04T21:06:05.031Z,91.70
2023-05-04T21:08:32.772Z,91.41
2023-05-04T21:11:01.875Z,90.59
2023-05-04T21:13:29.663Z,92.66
2023-05-04T21:15:59.368Z,93.49
2023-05-04T21:18:27.196Z,92.32
2023-05-04T21:20:55.083Z,91.66
2023-05-04T21:23:23.660Z,91.68
2023-05-04T21:25:51.368Z,92.70
2023-05-04T21:28:20.496Z,93.19
2023-05-04T21:30:48.242Z,93.40
2023-05-04T21:33:15.923Z,93.60
2023-05-04T21:35:43.782Z,94.09
2023-05-04T21:38:11.523Z,93.84
2023-05-04T21:40:39.261Z,93.23
2023-05-04T21:43:07.153Z,92.92
2023-05-04T21:45:36.251Z,92.96
2023-05-04T21:48:04.894Z,94.63
2023-05-04T21:50:33.079Z,94.52
2023-05-04T21:53:00.823Z,94.38
2023-05-04T21:55:30.377Z,93.55
2023-05-04T21:57:58.352Z,94.03
2023-05-04T22:00:26.478Z,95.13
2023-05-04T22:02:56.417Z,95.17
2023-05-04T22:05:24.278Z,96.51
2023-05-04T22:07:51.978Z,96.35
2023-05-04T22:10:19.770Z,96.90
2023-05-04T22:12:47.601Z,96.19
2023-05-04T22:15:15.549Z,96.79
2023-05-04T22:17:43.280Z,99.71
2023-05-04T22:20:13.898Z,97.45
2023-05-04T22:22:41.616Z,97.14
2023-05-04T22:25:10.015Z,95.92
2023-05-04T22:27:37.681Z,96.68
2023-05-04T22:30:06.602Z,96.14
2023-05-04T22:32:35.209Z,98.05
2023-05-04T22:35:03.268Z,96.79
2023-05-04T22:37:32.365Z,95.87
2023-05-04T22:40:00.875Z,95.58
2023-05-04T22:42:29.004Z,95.83
2023-05-04T22:44:56.874Z,96.52
2023-05-04T22:47:24.657Z,96.77
2023-05-04T22:49:55.011Z,96.26
2023-05-04T22:52:23.141Z,96.06
2023-05-04T22:54:52.743Z,96.30
2023-05-04T22:57:20.771Z,96.05
2023-05-04T22:59:48.548Z,96.13
2023-05-04T23:02:16.538Z,95.94
2023-05-04T23:04:44.748Z,95.01
2023-05-04T23:07:12.826Z,93.92
2023-05-04T23:09:43.271Z,94.73
2023-05-04T23:12:12.490Z,94.70
2023-05-04T23:14:40.276Z,93.96
2023-05-04T23:17:08.140Z,95.61
2023-05-04T23:19:36.041Z,95.77
2023-05-04T23:22:03.846Z,95.49
2023-05-04T23:24:31.562Z,96.26
2023-05-04T23:26:59.793Z,95.23
2023-05-04T23:29:28.974Z,96.66
2023-05-04T23:31:56.798Z,96.65
2023-05-04T23:34:24.667Z,97.80
2023-05-04T23:36:54.189Z,97.45
2023-05-04T23:39:21.988Z,98.06
2023-05-04T23:41:49.779Z,97.84
2023-05-04T23:44:17.484Z,96.57
2023-05-04T23:46:46.522Z,96.24
2023-05-04T23:49:14.244Z,97.25
2023-05-04T23:51:42.003Z,97.71
2023-05-04T23:54:10.544Z,96.63
2023-05-04T23:56:38.317Z,98.69
2023-05-04T23:59:06.015Z,100.00
